EPPO Airport Information

Runway Information
Runway 02 Length 2296 ft width 984 ft
Elevation 0 ft Threshold 0 ft Heading 0
Runway 20 Length 2296 ft Width 984 ft
Elevation 0 ft Threshold 0 ft Heading 0
Runway 10 Length 8215 ft width 164 ft
Elevation 308 ft Threshold 0 ft Heading 108
Runway 28 Length 8215 ft Width 164 ft
Elevation 289 ft Threshold 0 ft Heading 288
Airport Frequencies
Type APP Name POZNAN APP Frequency 135.525 MHZ
Type ATIS Name POZNAN ATI Frequency 124.7 MHZ
Type TWR Name POZNAN TWR Frequency 119.975 MHZ
Airport Navaids
Type NDB Name Poznan Frequency 429 KHZ
Airport Weather Information & NOTAM
ADDS - METARS form results

(1944 UTC 19 January 2019)
Data provider http://aviationweather.gov/metar/data/
 
METAR text: EPPO 191930Z 00000KT 0900 R28/2000N FZFG NSC M05/M05 Q1020 R10/19//95
Conditions at: EPPO (POZNAN/LAWICA , PL) observed 1930 UTC 19 January 2019
Temperature: -5.0°C (23°F)
Dewpoint: -5.0°C (23°F) [RH = 100%]
Pressure (altimeter): 30.12 inches Hg (1020.0 mb)
Winds: calm
Visibility: 0.56 miles (0.90 km)
Ceiling: at least 12,000 feet AGL
Clouds: sky clear below 12,000 feet AGL
Weather: FZFG  (freezing fog)

METAR text: EPPO 191900Z 00000KT 1200 R28/2000U BR NSC M06/M06 Q1020 R10/19//95
Conditions at: EPPO (POZNAN/LAWICA , PL) observed 1900 UTC 19 January 2019
Temperature: -6.0°C (21°F)
Dewpoint: -6.0°C (21°F) [RH = 100%]
Pressure (altimeter): 30.12 inches Hg (1020.0 mb)
Winds: calm
Visibility: 0.75 miles (1.21 km)
Ceiling: at least 12,000 feet AGL
Clouds: sky clear below 12,000 feet AGL
Weather: BR  (mist)

Forecast for: EPPO (POZNAN/LAWICA , PL)
Text: TAF EPPO 191730Z 1918/2018 14004KT 4000 BR NSC
Forecast period: 1800 UTC 19 January 2019 to 0900 UTC 20 January 2019
Forecast type: FROM: standard forecast or significant change
Winds: from the SE (140 degrees) at 5 MPH (4 knots; 2.1 m/s)
Visibility: 2.49 miles (4.01 km)
Ceiling: unknown
Clouds: missing
Weather: BR  (mist)
Text: TEMPO 1918/2009 2000 BR
Forecast period: 1800 UTC 19 January 2019 to 0900 UTC 20 January 2019
Forecast type: TEMPORARY: The following changes expected for less than half the time period
Visibility: 1.24 miles (2.00 km)
Ceiling: unknown
Clouds: missing
Weather: BR  (mist)
Text: PROB30 1918/2008 0400 FZFG BKN002
Forecast period: 1800 UTC 19 January 2019 to 0800 UTC 20 January 2019
Forecast type: PROBABLE: 30 percent likelihood of the following during this time
Visibility: 0.25 miles (0.40 km)
Ceiling: 200 feet AGL
Clouds: broken clouds at 200 feet AGL
Weather: FZFG  (freezing fog)
Text: BECMG 2009/2011 7000
Forecast period: 0900 to 1800 UTC 20 January 2019
Forecast type: BECOMING: Conditions expected to become as follows by 1100 UTC 20 January 2019
Winds: from the SE (140 degrees) at 5 MPH (4 knots; 2.1 m/s)
Visibility: 4 miles (7 km)
Ceiling: unknown
Clouds: missing
Weather: BR  (mist)